createdAt,value
2022-09-28T00:01:26.330Z,54.15
2022-09-28T00:03:58.438Z,51.53
2022-09-28T00:06:29.395Z,51.89
2022-09-28T00:08:58.552Z,51.86
2022-09-28T00:11:29.579Z,52.13
2022-09-28T00:14:02.159Z,51.88
2022-09-28T00:16:33.176Z,51.95
2022-09-28T00:19:02.141Z,52.13
2022-09-28T00:21:32.584Z,52.12
2022-09-28T00:24:17.498Z,53.39
2022-09-28T00:26:51.803Z,53.79
2022-09-28T00:29:39.615Z,53.32
2022-09-28T00:32:10.857Z,53.01
2022-09-28T00:34:45.749Z,51.80
2022-09-28T00:37:15.074Z,51.69
2022-09-28T00:39:43.503Z,52.61
2022-09-28T00:42:14.653Z,52.02
2022-09-28T00:44:42.461Z,50.50
2022-09-28T00:47:13.808Z,50.09
2022-09-28T00:49:45.615Z,50.42
2022-09-28T00:52:16.281Z,50.75
2022-09-28T00:54:46.161Z,51.60
2022-09-28T00:57:14.318Z,50.97
2022-09-28T00:59:42.433Z,51.61
2022-09-28T01:02:10.595Z,52.90
2022-09-28T01:04:38.840Z,51.75
2022-09-28T01:07:08.876Z,52.66
2022-09-28T01:09:39.130Z,53.18
2022-09-28T01:12:07.662Z,52.15
2022-09-28T01:14:35.130Z,52.00
2022-09-28T01:17:41.191Z,51.62
2022-09-28T01:20:21.109Z,50.80
2022-09-28T01:23:17.272Z,52.62
2022-09-28T01:25:47.906Z,50.67
2022-09-28T01:28:17.489Z,52.19
2022-09-28T01:30:49.773Z,53.01
2022-09-28T01:33:22.854Z,54.17
2022-09-28T01:35:55.700Z,54.26
2022-09-28T01:38:26.998Z,53.28
2022-09-28T01:40:55.564Z,51.10
2022-09-28T01:43:25.387Z,51.28
2022-09-28T01:46:00.594Z,51.88
2022-09-28T01:48:36.165Z,52.23
2022-09-28T01:51:04.793Z,51.60
2022-09-28T01:53:36.551Z,50.81
2022-09-28T01:56:12.586Z,50.75
2022-09-28T01:58:52.618Z,50.57
2022-09-28T02:01:41.954Z,49.88
2022-09-28T02:04:17.217Z,49.95
2022-09-28T02:06:51.967Z,51.65
2022-09-28T02:09:24.954Z,51.26
2022-09-28T02:12:03.103Z,51.11
2022-09-28T02:14:31.831Z,52.50
2022-09-28T02:17:02.017Z,52.77
2022-09-28T02:19:31.125Z,53.01
2022-09-28T02:22:23.840Z,53.77
2022-09-28T02:25:11.132Z,51.79
2022-09-28T02:27:55.371Z,52.00
2022-09-28T02:30:23.126Z,51.41
2022-09-28T02:32:53.628Z,51.46
2022-09-28T02:35:22.144Z,51.22
2022-09-28T02:37:50.421Z,52.09
2022-09-28T02:40:22.418Z,50.87
2022-09-28T02:43:00.085Z,49.79
2022-09-28T02:45:36.837Z,51.56
2022-09-28T02:48:04.636Z,51.54
2022-09-28T02:50:46.544Z,49.82
2022-09-28T02:53:37.223Z,50.13
2022-09-28T02:56:07.577Z,48.85
2022-09-28T02:58:54.431Z,48.79
2022-09-28T03:01:51.241Z,49.02
2022-09-28T03:04:21.555Z,48.08
2022-09-28T03:06:55.260Z,48.06
2022-09-28T03:09:29.346Z,47.34
2022-09-28T03:11:59.836Z,47.55
2022-09-28T03:14:28.091Z,48.17
2022-09-28T03:16:56.308Z,48.78
2022-09-28T03:19:28.256Z,48.16
2022-09-28T03:21:56.029Z,48.24
2022-09-28T03:24:23.441Z,48.50
2022-09-28T03:26:51.027Z,48.21
2022-09-28T03:29:20.528Z,48.10
2022-09-28T03:31:49.640Z,47.69
2022-09-28T03:34:17.120Z,47.61
2022-09-28T03:36:44.849Z,48.11
2022-09-28T03:39:12.295Z,48.68
2022-09-28T03:41:39.729Z,47.75
2022-09-28T03:44:07.543Z,48.16
2022-09-28T03:46:35.083Z,48.97
2022-09-28T03:49:02.818Z,49.13
2022-09-28T03:51:30.566Z,48.85
2022-09-28T03:53:58.016Z,49.47
2022-09-28T03:56:25.989Z,48.32
2022-09-28T03:58:53.744Z,48.82
2022-09-28T04:01:21.311Z,49.52
2022-09-28T04:03:54.025Z,49.34
2022-09-28T04:06:22.643Z,48.83
2022-09-28T04:08:50.516Z,49.41
2022-09-28T04:11:18.067Z,49.79
2022-09-28T04:13:49.568Z,50.02
2022-09-28T04:16:18.565Z,50.62
2022-09-28T04:18:47.869Z,50.84
2022-09-28T04:21:17.369Z,49.45
2022-09-28T04:23:45.585Z,48.91
2022-09-28T04:26:20.333Z,49.12
2022-09-28T04:29:07.173Z,49.43
2022-09-28T04:31:56.287Z,49.11
2022-09-28T04:34:25.643Z,49.34
2022-09-28T04:36:53.072Z,49.57
2022-09-28T04:39:20.505Z,49.77
2022-09-28T04:41:48.897Z,49.97
2022-09-28T04:44:16.994Z,50.19
2022-09-28T04:46:45.949Z,51.27
2022-09-28T04:49:15.568Z,50.31
2022-09-28T04:51:43.187Z,50.25
2022-09-28T04:54:10.649Z,50.18
2022-09-28T04:56:38.356Z,49.26
2022-09-28T04:59:06.201Z,49.68
2022-09-28T05:01:34.183Z,50.25
2022-09-28T05:04:05.660Z,49.59
2022-09-28T05:06:33.366Z,50.12
2022-09-28T05:09:00.896Z,50.17
2022-09-28T05:11:28.887Z,50.36
2022-09-28T05:13:56.683Z,50.20
2022-09-28T05:16:26.233Z,50.96
2022-09-28T05:18:56.038Z,50.64
2022-09-28T05:21:25.433Z,50.95
2022-09-28T05:23:56.090Z,50.93
2022-09-28T05:26:24.573Z,51.29
2022-09-28T05:28:52.031Z,51.06
2022-09-28T05:31:21.607Z,51.09
2022-09-28T05:33:49.683Z,51.07
2022-09-28T05:36:17.123Z,50.92
2022-09-28T05:38:44.619Z,50.59
2022-09-28T05:41:12.442Z,50.74
2022-09-28T05:43:39.954Z,51.38
2022-09-28T05:46:07.484Z,51.13
2022-09-28T05:48:35.814Z,50.50
2022-09-28T05:51:03.301Z,50.21
2022-09-28T05:53:30.971Z,49.57
2022-09-28T05:55:59.854Z,50.03
2022-09-28T05:58:28.481Z,50.26
2022-09-28T06:00:56.656Z,49.52
2022-09-28T06:03:25.016Z,48.71
2022-09-28T06:05:52.478Z,48.22
2022-09-28T06:08:19.978Z,47.62
2022-09-28T06:10:48.101Z,46.64
2022-09-28T06:13:15.655Z,46.50
2022-09-28T06:15:43.712Z,47.10
2022-09-28T06:18:16.431Z,45.70
2022-09-28T06:20:44.115Z,45.56
2022-09-28T06:23:13.302Z,47.15
2022-09-28T06:25:41.281Z,47.30
2022-09-28T06:28:13.432Z,46.98
2022-09-28T06:30:43.102Z,46.53
2022-09-28T06:33:15.078Z,46.87
2022-09-28T06:35:42.861Z,46.47
2022-09-28T06:38:11.024Z,45.95
2022-09-28T06:40:38.926Z,45.18
2022-09-28T06:43:12.176Z,46.14
2022-09-28T06:45:51.063Z,45.41
2022-09-28T06:48:20.218Z,46.41
2022-09-28T06:50:47.750Z,46.55
2022-09-28T06:53:17.602Z,44.75
2022-09-28T06:55:49.146Z,44.28
2022-09-28T06:58:19.768Z,46.42
2022-09-28T07:00:50.005Z,44.40
2022-09-28T07:03:22.284Z,43.87
2022-09-28T07:05:53.904Z,43.26
2022-09-28T07:08:25.921Z,44.23
2022-09-28T07:10:56.325Z,44.36
2022-09-28T07:16:19.619Z,45.16
2022-09-28T07:18:49.226Z,44.20
2022-09-28T07:21:27.809Z,46.14
2022-09-28T07:23:57.519Z,45.89
2022-09-28T07:26:26.810Z,44.85
2022-09-28T07:28:55.919Z,43.84
2022-09-28T07:31:25.281Z,43.54
2022-09-28T07:33:53.869Z,43.83
2022-09-28T07:36:22.775Z,45.25
2022-09-28T07:38:51.249Z,44.73
2022-09-28T07:41:32.127Z,45.57
2022-09-28T07:44:05.439Z,44.05
2022-09-28T07:46:34.741Z,46.56
2022-09-28T07:49:08.349Z,48.53
2022-09-28T07:51:39.567Z,50.08
2022-09-28T07:54:09.285Z,50.46
2022-09-28T07:56:37.796Z,49.93
2022-09-28T07:59:05.646Z,51.53
2022-09-28T08:01:33.924Z,51.11
2022-09-28T08:04:01.834Z,50.74
2022-09-28T08:06:30.326Z,52.08
2022-09-28T08:08:59.950Z,52.19
2022-09-28T08:11:29.636Z,51.90
2022-09-28T08:13:58.195Z,51.58
2022-09-28T08:16:27.626Z,50.25
2022-09-28T08:18:55.536Z,50.73
2022-09-28T08:21:42.079Z,49.66
2022-09-28T08:24:09.898Z,48.19
2022-09-28T08:26:37.276Z,49.08
2022-09-28T08:29:04.792Z,49.91
2022-09-28T08:31:34.328Z,51.63
2022-09-28T08:34:03.022Z,50.01
2022-09-28T08:36:31.770Z,50.56
2022-09-28T08:39:03.617Z,51.63
2022-09-28T08:41:35.284Z,50.46
2022-09-28T08:44:10.215Z,51.44
2022-09-28T08:46:42.686Z,52.38
2022-09-28T08:49:30.200Z,51.94
2022-09-28T08:52:20.636Z,51.70
2022-09-28T08:54:56.266Z,51.63
2022-09-28T08:57:31.066Z,52.28
2022-09-28T08:59:59.874Z,52.22
2022-09-28T09:02:31.356Z,53.88
2022-09-28T09:05:03.778Z,53.53
2022-09-28T09:08:00.364Z,52.90
2022-09-28T09:10:57.866Z,52.76
2022-09-28T09:13:50.552Z,53.14
2022-09-28T09:16:59.975Z,53.33
2022-09-28T09:19:57.172Z,53.58
2022-09-28T09:22:31.580Z,52.87
2022-09-28T09:25:41.302Z,52.61
2022-09-28T09:28:21.127Z,53.24
2022-09-28T09:31:10.244Z,51.67
2022-09-28T09:34:01.559Z,50.88
2022-09-28T09:37:03.324Z,49.66
2022-09-28T09:39:44.298Z,51.22
2022-09-28T09:42:35.506Z,52.07
2022-09-28T09:45:41.257Z,52.69
2022-09-28T09:48:40.269Z,51.61
2022-09-28T09:51:22.875Z,52.95
2022-09-28T09:53:59.998Z,52.97
2022-09-28T09:56:40.849Z,52.80
2022-09-28T09:59:12.065Z,51.42
2022-09-28T10:01:41.122Z,51.46
2022-09-28T10:04:19.993Z,52.01
2022-09-28T10:06:49.925Z,51.97
2022-09-28T10:09:25.076Z,52.27
2022-09-28T10:11:53.961Z,51.22
2022-09-28T10:14:24.046Z,51.58
2022-09-28T10:16:54.068Z,52.05
2022-09-28T10:19:33.855Z,52.60
2022-09-28T10:22:06.369Z,53.15
2022-09-28T10:24:45.210Z,51.84
2022-09-28T10:27:22.596Z,51.51
2022-09-28T10:30:00.990Z,50.21
2022-09-28T10:32:46.600Z,49.42
2022-09-28T10:35:29.307Z,49.96
2022-09-28T10:38:06.930Z,49.34
2022-09-28T10:41:01.973Z,48.95
2022-09-28T10:43:34.520Z,50.46
2022-09-28T10:46:15.616Z,50.71
2022-09-28T10:49:01.618Z,49.98
2022-09-28T10:51:49.957Z,49.79
2022-09-28T10:54:21.166Z,50.44
2022-09-28T10:56:50.795Z,49.22
2022-09-28T10:59:29.543Z,49.57
2022-09-28T11:02:09.900Z,50.73
2022-09-28T11:04:41.120Z,50.08
2022-09-28T11:07:18.857Z,49.97
2022-09-28T11:09:49.896Z,49.36
2022-09-28T11:12:26.340Z,49.27
2022-09-28T11:15:06.904Z,48.39
2022-09-28T11:17:40.519Z,49.04
2022-09-28T11:20:28.219Z,48.11
2022-09-28T11:23:15.811Z,48.75
2022-09-28T11:25:43.582Z,48.09
2022-09-28T11:28:22.810Z,48.11
2022-09-28T11:30:52.638Z,48.22
2022-09-28T11:33:30.734Z,48.93
2022-09-28T11:36:05.627Z,50.36
2022-09-28T11:38:39.806Z,49.51
2022-09-28T11:41:14.441Z,47.69
2022-09-28T11:44:04.402Z,48.94
2022-09-28T11:47:11.059Z,46.81
2022-09-28T11:49:45.509Z,47.20
2022-09-28T11:52:18.765Z,47.75
2022-09-28T11:54:59.270Z,48.18
2022-09-28T11:57:35.869Z,48.78
2022-09-28T12:00:12.388Z,47.46
2022-09-28T12:03:05.372Z,48.00
2022-09-28T12:05:44.676Z,48.52
2022-09-28T12:08:17.292Z,47.30
2022-09-28T12:10:53.931Z,46.52
2022-09-28T12:13:27.456Z,47.68
2022-09-28T12:16:32.682Z,45.57
2022-09-28T12:18:53.136Z,46.30
2022-09-28T12:21:39.293Z,46.36
2022-09-28T12:24:13.467Z,46.56
2022-09-28T12:26:51.081Z,46.76
2022-09-28T12:29:53.878Z,46.18
2022-09-28T12:32:31.291Z,46.29
2022-09-28T12:34:58.735Z,47.41
2022-09-28T12:37:44.624Z,48.07
2022-09-28T12:40:18.161Z,48.10
2022-09-28T12:43:09.975Z,47.81
2022-09-28T12:46:11.628Z,48.57
2022-09-28T12:52:00.350Z,47.72
2022-09-28T12:54:43.125Z,49.05
2022-09-28T12:57:38.055Z,48.99
2022-09-28T13:00:13.130Z,49.34
2022-09-28T13:02:59.712Z,48.49
2022-09-28T13:05:44.000Z,48.57
2022-09-28T13:08:21.074Z,48.95
2022-09-28T13:11:07.813Z,48.63
2022-09-28T13:13:54.354Z,49.33
2022-09-28T13:16:35.496Z,48.63
2022-09-28T13:19:16.934Z,48.19
2022-09-28T13:22:32.279Z,47.79
2022-09-28T13:25:03.788Z,48.86
2022-09-28T13:27:40.564Z,49.92
2022-09-28T13:30:08.550Z,48.45
2022-09-28T13:32:37.253Z,48.05
2022-09-28T13:35:05.640Z,46.79
2022-09-28T13:37:34.436Z,47.63
2022-09-28T13:40:06.177Z,48.13
2022-09-28T13:42:47.326Z,48.34
2022-09-28T13:45:26.617Z,48.62
2022-09-28T13:48:02.897Z,46.12
2022-09-28T13:50:30.490Z,45.91
2022-09-28T13:52:57.932Z,45.70
2022-09-28T13:55:37.270Z,46.02
2022-09-28T13:58:31.490Z,45.30
2022-09-28T14:01:08.134Z,45.27
2022-09-28T14:04:03.724Z,45.45
2022-09-28T14:06:32.380Z,45.99
2022-09-28T14:09:25.071Z,46.25
2022-09-28T14:12:03.591Z,46.43
2022-09-28T14:14:50.426Z,45.67
2022-09-28T14:17:20.798Z,45.80
2022-09-28T14:19:54.345Z,46.74
2022-09-28T14:22:35.532Z,46.99
2022-09-28T14:25:03.377Z,45.33
2022-09-28T14:27:51.360Z,44.86
2022-09-28T14:30:25.738Z,44.56
2022-09-28T14:32:58.691Z,45.16
2022-09-28T14:35:38.747Z,45.04
2022-09-28T14:38:32.757Z,44.80
2022-09-28T14:41:12.616Z,45.47
2022-09-28T14:43:46.269Z,45.18
2022-09-28T14:46:14.644Z,44.74
2022-09-28T14:49:26.826Z,44.45
2022-09-28T14:51:54.746Z,45.91
2022-09-28T14:54:24.095Z,45.73
2022-09-28T14:56:57.191Z,45.59
2022-09-28T14:59:27.937Z,45.69
2022-09-28T15:02:10.638Z,46.13
2022-09-28T15:04:54.966Z,45.81
2022-09-28T15:07:29.674Z,45.86
2022-09-28T15:09:58.346Z,45.70
2022-09-28T15:12:30.575Z,45.88
2022-09-28T15:15:02.285Z,45.38
2022-09-28T15:17:40.766Z,46.56
2022-09-28T15:20:17.290Z,46.22
2022-09-28T15:22:46.903Z,45.58
2022-09-28T15:25:19.926Z,46.07
2022-09-28T15:27:55.459Z,47.16
2022-09-28T15:30:33.912Z,47.26
2022-09-28T15:33:21.231Z,47.07
2022-09-28T15:36:03.957Z,45.67
2022-09-28T15:38:34.303Z,45.87
2022-09-28T15:41:06.396Z,46.04
2022-09-28T15:43:34.359Z,46.08
2022-09-28T15:46:13.471Z,45.94
2022-09-28T15:48:51.948Z,46.86
2022-09-28T15:51:21.440Z,46.22
2022-09-28T15:53:56.063Z,45.33
2022-09-28T15:56:24.875Z,45.62
2022-09-28T15:59:18.867Z,46.28
2022-09-28T16:01:47.299Z,45.52
2022-09-28T16:04:39.950Z,45.14
2022-09-28T16:07:10.354Z,44.96
2022-09-28T16:10:01.193Z,44.85
2022-09-28T16:12:54.199Z,45.24
2022-09-28T16:15:28.210Z,45.21
2022-09-28T16:18:00.683Z,45.85
2022-09-28T16:20:35.625Z,45.95
2022-09-28T16:23:22.650Z,45.51
2022-09-28T16:26:15.988Z,45.14
2022-09-28T16:28:48.671Z,45.59
2022-09-28T16:31:19.591Z,45.64
2022-09-28T16:33:54.253Z,45.65
2022-09-28T16:36:22.742Z,46.26
2022-09-28T16:38:50.572Z,45.75
2022-09-28T16:41:22.427Z,45.53
2022-09-28T16:43:55.182Z,45.86
2022-09-28T16:46:29.351Z,45.76
2022-09-28T16:49:02.351Z,46.14
2022-09-28T16:51:29.869Z,46.26
2022-09-28T16:54:33.056Z,47.29
2022-09-28T16:57:01.024Z,47.14
2022-09-28T16:59:29.084Z,46.73
2022-09-28T17:01:57.142Z,46.64
2022-09-28T17:04:25.846Z,46.49
2022-09-28T17:06:55.315Z,47.17
2022-09-28T17:09:23.571Z,47.11
2022-09-28T17:11:57.043Z,48.09
2022-09-28T17:14:24.911Z,47.78
2022-09-28T17:17:12.701Z,48.13
2022-09-28T17:19:42.041Z,48.13
2022-09-28T17:22:10.128Z,48.25
2022-09-28T17:24:37.681Z,48.43
2022-09-28T17:27:06.968Z,48.14
2022-09-28T17:29:34.410Z,48.61
2022-09-28T17:32:02.198Z,48.52
2022-09-28T17:34:30.034Z,50.09
2022-09-28T17:36:57.519Z,49.59
2022-09-28T17:39:25.222Z,50.40
2022-09-28T17:41:53.156Z,50.84
2022-09-28T17:44:21.073Z,51.56
2022-09-28T17:46:49.619Z,51.67
2022-09-28T17:49:17.633Z,52.65
2022-09-28T17:51:45.099Z,53.23
2022-09-28T17:54:16.977Z,53.35
2022-09-28T17:56:44.781Z,53.87
2022-09-28T17:59:17.643Z,54.22
2022-09-28T18:01:45.546Z,54.49
2022-09-28T18:04:33.223Z,54.82
2022-09-28T18:07:01.122Z,54.95
2022-09-28T18:09:28.893Z,55.01
2022-09-28T18:12:01.333Z,55.77
2022-09-28T18:14:30.489Z,55.62
2022-09-28T18:16:59.782Z,56.62
2022-09-28T18:19:31.942Z,56.62
2022-09-28T18:22:01.568Z,56.77
2022-09-28T18:24:29.894Z,57.47
2022-09-28T18:26:57.923Z,57.41
2022-09-28T18:29:28.072Z,57.46
2022-09-28T18:31:58.653Z,57.92
2022-09-28T18:34:26.724Z,57.69
2022-09-28T18:36:54.895Z,57.76
2022-09-28T18:39:23.895Z,57.70
2022-09-28T18:41:51.756Z,57.99
2022-09-28T18:44:19.379Z,58.63
2022-09-28T18:46:47.106Z,58.33
2022-09-28T18:49:15.268Z,58.21
2022-09-28T18:51:42.879Z,58.20
2022-09-28T18:54:10.345Z,58.12
2022-09-28T18:56:38.279Z,58.32
2022-09-28T18:59:13.403Z,58.90
2022-09-28T19:01:41.981Z,58.71
2022-09-28T19:04:10.720Z,58.77
2022-09-28T19:06:44.397Z,59.33
2022-09-28T19:09:13.195Z,59.42
2022-09-28T19:11:41.231Z,59.42
2022-09-28T19:14:11.095Z,59.05
2022-09-28T19:16:38.961Z,59.61
2022-09-28T19:19:06.672Z,59.72
2022-09-28T19:21:35.201Z,59.69
2022-09-28T19:24:04.300Z,59.56
2022-09-28T19:26:32.901Z,59.40
2022-09-28T19:29:00.821Z,59.39
2022-09-28T19:31:29.756Z,59.64
2022-09-28T19:33:57.278Z,59.66
2022-09-28T19:36:26.214Z,60.04
2022-09-28T19:38:55.551Z,60.33
2022-09-28T19:41:45.622Z,60.06
2022-09-28T19:44:19.471Z,60.02
2022-09-28T19:46:47.072Z,60.10
2022-09-28T19:49:19.682Z,59.97
2022-09-28T19:52:11.722Z,60.30
2022-09-28T19:54:37.634Z,60.24
2022-09-28T19:57:07.879Z,60.25
2022-09-28T19:59:39.203Z,60.28
2022-09-28T20:02:07.948Z,60.14
2022-09-28T20:04:35.694Z,60.31
2022-09-28T20:07:04.409Z,60.03
2022-09-28T20:09:33.018Z,60.08
2022-09-28T20:12:00.993Z,60.33
2022-09-28T20:14:33.086Z,60.56
2022-09-28T20:17:04.194Z,60.27
2022-09-28T20:19:31.611Z,60.58
2022-09-28T20:22:03.002Z,60.47
2022-09-28T20:24:31.571Z,60.63
2022-09-28T20:26:59.409Z,60.54
2022-09-28T20:29:26.881Z,60.60
2022-09-28T20:31:54.656Z,60.77
2022-09-28T20:34:22.132Z,60.43
2022-09-28T20:36:49.620Z,60.21
2022-09-28T20:39:17.501Z,60.46
2022-09-28T20:41:46.632Z,60.56
2022-09-28T20:44:14.117Z,60.62
2022-09-28T20:46:44.103Z,60.47
2022-09-28T20:49:11.812Z,60.72
2022-09-28T20:51:39.247Z,60.59
2022-09-28T20:54:07.094Z,60.79
2022-09-28T20:56:38.143Z,60.69
2022-09-28T20:59:11.119Z,60.84
2022-09-28T21:01:39.276Z,61.23
2022-09-28T21:04:08.095Z,60.69
2022-09-28T21:06:41.556Z,60.91
2022-09-28T21:09:10.653Z,60.50
2022-09-28T21:11:38.678Z,60.64
2022-09-28T21:14:08.414Z,60.91
2022-09-28T21:16:36.367Z,61.39
2022-09-28T21:19:04.121Z,61.19
2022-09-28T21:21:31.644Z,61.63
2022-09-28T21:23:59.632Z,61.34
2022-09-28T21:26:28.759Z,61.30
2022-09-28T21:28:57.979Z,61.21
2022-09-28T21:31:29.541Z,60.86
2022-09-28T21:33:58.075Z,60.78
2022-09-28T21:36:26.084Z,61.21
2022-09-28T21:38:55.164Z,61.30
2022-09-28T21:41:23.611Z,60.79
2022-09-28T21:43:52.035Z,60.75
2022-09-28T21:46:19.603Z,60.50
2022-09-28T21:48:51.456Z,61.33
2022-09-28T21:51:19.489Z,60.82
2022-09-28T21:53:48.512Z,60.43
2022-09-28T21:56:16.045Z,60.57
2022-09-28T21:58:43.699Z,60.42
2022-09-28T22:01:25.588Z,60.44
2022-09-28T22:03:56.302Z,60.54
2022-09-28T22:06:28.131Z,60.74
2022-09-28T22:08:56.753Z,60.42
2022-09-28T22:11:26.893Z,60.29
2022-09-28T22:13:57.211Z,60.83
2022-09-28T22:16:27.684Z,60.46
2022-09-28T22:18:55.314Z,60.61
2022-09-28T22:21:25.220Z,60.74
2022-09-28T22:23:53.486Z,61.32
2022-09-28T22:26:25.235Z,60.87
2022-09-28T22:28:57.873Z,60.61
2022-09-28T22:31:29.175Z,60.67
2022-09-28T22:33:57.598Z,60.85
2022-09-28T22:36:25.945Z,60.59
2022-09-28T22:38:54.790Z,60.82
2022-09-28T22:41:22.879Z,60.67
2022-09-28T22:43:51.643Z,60.71
2022-09-28T22:46:25.106Z,60.79
2022-09-28T22:48:58.272Z,60.71
2022-09-28T22:51:27.432Z,61.55
2022-09-28T22:53:56.522Z,60.77
2022-09-28T22:56:24.553Z,60.60
2022-09-28T22:58:52.046Z,61.12
2022-09-28T23:01:22.273Z,60.99
2022-09-28T23:03:50.849Z,60.94
2022-09-28T23:06:20.243Z,61.17
2022-09-28T23:08:49.070Z,61.06
2022-09-28T23:11:16.842Z,61.51
2022-09-28T23:13:49.412Z,61.09
2022-09-28T23:16:17.375Z,60.85
2022-09-28T23:18:45.108Z,60.44
2022-09-28T23:21:15.429Z,60.53
2022-09-28T23:23:44.172Z,60.78
2022-09-28T23:26:17.602Z,60.68
2022-09-28T23:28:45.685Z,61.12
2022-09-28T23:31:16.133Z,61.21
2022-09-28T23:33:43.721Z,60.86
2022-09-28T23:36:11.941Z,61.09
2022-09-28T23:38:39.448Z,61.59
2022-09-28T23:41:07.150Z,61.42
2022-09-28T23:43:36.157Z,61.60
2022-09-28T23:46:04.506Z,61.33
2022-09-28T23:48:32.169Z,61.32
2022-09-28T23:51:00.018Z,61.47
2022-09-28T23:53:27.668Z,61.57
2022-09-28T23:55:55.199Z,62.21
2022-09-28T23:58:22.962Z,61.70
